Friday, February 12, 2016
01:32 UTC
  |  Log In   |  Register Free
Airport Search:

Newnan Coweta County Airport
(KCCO)

Newnan Coweta County Airport Diagram
No Airport Diagram Available

FAA data valid effective Feb 4 2016 - Mar 31 2016 (unless otherwise noted).

 
 
 
 
 
 
 
 
 
 
 
 
 
 
Current Aviation Weather for KCCO

Weather Summary


The most recent METAR observation for CCO was updated at: 12:55 UTC
METAR for KCCO is not available. Closest METAR is for KFFC
KCCO  (most recent observation was updatred at 12:00 UTC)
120055Z AUTO 00000KT 10SM CLR 08/00 A3015 RMK AO2 T00770002

KFFC  (10.3 nm SW)   (most recent observation was updated at 12:00 UTC)
120053Z AUTO 00000KT 10SM CLR 04/00 A3016 RMK AO2 SLP221 T00440000

KLGC  (23.7 nm NE)   (most recent observation was updated at 12:00 UTC)
120055Z AUTO 00000KT 10SM CLR 07/05 A3015 RMK AO2 T00720051

TAF for KCCO is not available.
KATL  (26.0 nm SW)   (most recent observation was updatred at 11:23 UTC)
112338Z 1200/1306 28005KT P6SM FEW100 FM120200 02004KT P6SM BKN100 FM121000 06005KT P6SM BKN030 FM121500 07005KT P6SM BKN025 FM121800 30010KT P6SM BKN030 FM122100 27010G20KT P6SM SCT030 FM130400 32012G22KT P6SM SCT020


KFTY  (30.7 nm SW)   (most recent observation was updatred at 11:23 UTC)
112338Z 1200/1224 32004KT P6SM FEW100 FM120200 02004KT P6SM BKN100 FM121000 06005KT P6SM BKN030 FM121500 07005KT P6SM BKN025 FM121800 30010KT P6SM BKN030 FM122100 27010G18KT P6SM SCT030


GlobalAir.com is loading additional information.
 Current Weather at CCO
50.0 F° (10.0 C°)

North winds at 0.0 mph
Pressure:
30.15 in
Humidity:
51%
Wind:
North at 0.0 mph
Dew Point:
32.5 F° (0.3 C°)
Visibility:
10.00 mi
CCO NOAA Radar




Find All Airport Services Find A Hotel Find A Rental Car Find A Golf Course Find A Restaurant $100 Hamburger



Airport Weather Forecast for KCCO

Translated METAR for KCCO (0055 UTC)
METAR:
KCCO 120055Z AUTO 00000KT 10SM CLR 08/00 A3015 RMK AO2 T00770002
Conditions at:
KCCO (Newnan Coweta County, GA) observed 0055 UTC 11 February 2016
Temperature:
8°C (46.4°F)
Dewpoint:
0°C (32°F) [RH = 57]
Pressure:
30.15 inches Hg (1021 mb)
Winds:
from the N (000 degrees) at 0 mph (0 knots: 0 m/s)
Visibility:
10 mile(s)
Ceiling:
at least 12,000 feet AGL
Clouds:
Clear below 12,000 feet AGL
Remarks:
site is un-manned
site is automated and HAS a precipitation sensor

Translated TAF for KATL (Hartsfield - Jackson Atlanta Intl, GA) (2338 UTC)
TAF text:
KATL 112338Z 1200/1306 28005KT P6SM FEW100
Forecast period:
Friday Feb 12 2016 00:00 UTC - Saturday Feb 13 2016 06:00 UTC
Forecast type:
FROM: standard forecast or significant change
Winds:
from the W (280 degrees) at 5.8 mph (5 knots: 2.6 m/s)
Visibility:
6 or more mile(s) (9.7+ km)
Ceiling:
at least 12,000 feet AGL
Clouds:
Few Clouds at 10,000 feet AGL
Weather:
no significant weather observed at this time
TAF text:
FM120200 02004KT P6SM BKN100
Forecast period:
Friday Feb 12 2016 02:00 UTC - Friday Feb 12 2016 10:00 UTC
Forecast type:
FROM: standard forecast or significant change
Winds:
from the NNE (020 degrees) at 4.6 mph (4 knots: 2.1 m/s)
Visibility:
6 or more mile(s) (9.7+ km)
Ceiling:
10,000 feet AGL
Clouds:
Broken Cloud Cover at 10,000 feet AGL
Weather:
no significant weather observed at this time
TAF text:
FM121000 06005KT P6SM BKN030
Forecast period:
Friday Feb 12 2016 10:00 UTC - Friday Feb 12 2016 15:00 UTC
Forecast type:
FROM: standard forecast or significant change
Winds:
from the ENE (060 degrees) at 5.8 mph (5 knots: 2.6 m/s)
Visibility:
6 or more mile(s) (9.7+ km)
Ceiling:
3,000 feet AGL
Clouds:
Broken Cloud Cover at 3,000 feet AGL
Weather:
no significant weather observed at this time
TAF text:
FM121500 07005KT P6SM BKN025
Forecast period:
Friday Feb 12 2016 15:00 UTC - Friday Feb 12 2016 18:00 UTC
Forecast type:
FROM: standard forecast or significant change
Winds:
from the ENE (070 degrees) at 5.8 mph (5 knots: 2.6 m/s)
Visibility:
6 or more mile(s) (9.7+ km)
Ceiling:
2,500 feet AGL
Clouds:
Broken Cloud Cover at 2,500 feet AGL
Weather:
no significant weather observed at this time
TAF text:
FM121800 30010KT P6SM BKN030
Forecast period:
Friday Feb 12 2016 18:00 UTC - Friday Feb 12 2016 21:00 UTC
Forecast type:
FROM: standard forecast or significant change
Winds:
from the WNW (300 degrees) at 11.5 mph (10 knots: 5.1 m/s)
Visibility:
6 or more mile(s) (9.7+ km)
Ceiling:
3,000 feet AGL
Clouds:
Broken Cloud Cover at 3,000 feet AGL
Weather:
no significant weather observed at this time
TAF text:
FM122100 27010G20KT P6SM SCT030
Forecast period:
Friday Feb 12 2016 21:00 UTC - Saturday Feb 13 2016 04:00 UTC
Forecast type:
FROM: standard forecast or significant change
Winds:
from the W (270 degrees) at 11.5 mph (10 knots: 5.1 m/s)
gusting to 23 mph (20 knots: 10.3 m/s)
Visibility:
6 or more mile(s) (9.7+ km)
Ceiling:
at least 12,000 feet AGL
Clouds:
Scattered Clouds at 3,000 feet AGL
Weather:
no significant weather observed at this time
TAF text:
FM130400 32012G22KT P6SM SCT020
Forecast period:
Saturday Feb 13 2016 04:00 UTC - Saturday Feb 13 2016 06:00 UTC
Forecast type:
FROM: standard forecast or significant change
Winds:
from the NW (320 degrees) at 13.8 mph (12 knots: 6.2 m/s)
gusting to 25.3 mph (22 knots: 11.3 m/s)
Visibility:
6 or more mile(s) (9.7+ km)
Ceiling:
at least 12,000 feet AGL
Clouds:
Scattered Clouds at 2,000 feet AGL
Weather:
no significant weather observed at this time
FBO's on the Field
FBO Company Facility Photos Services Transportation Aviation Fuel Prices: Prices include tax
Catering Weather Repair Courtesy Rental Type 100LL JetA JetA+ MOGAS 8087
 
CCO Airport Services

This FBO has not yet been rated
FS:Shell
Last Updated: Jan-13
Login to update fuel prices
SS:
Contact CCO Airport ServicesMore FBO Information
 
Add another FBO Facility Photos Catering Weather Repair Courtesy Rental Type 100LL JetA JetA+ MOGAS 8087
Services Transportation Aviation Fuel Prices: Prices include tax


model-print
model-print
model-print
model-print